Lakenheath Air Base, United Kingdom

2:19 AM BST on September 17, 2014 (GMT +0100)
IENGLAND263 | Change Station
CLOSE
Current Station
Personal Weather Station
Location: Brandon, Suffolk, England
Elevation: 46 ft
Nearby Weather Stations

Elev 46 ft 52.44 °N, 0.60 °E | Updated 9 seconds ago

Overcast
Overcast
61.1 °F
Feels Like 61.1 °F
N
0.0
Wind Variable Wind from North
Gusts 0.0 mph

Today
High -- | Low -- °F
--% Chance of Precip.
Yesterday
High -- | Low -- °F
Precip. -- in
6:35 AM 7:08 PM
Last Quarter, 41% visible
Pressure 29.97 in
Visibility 5.6 miles
Clouds Overcast 1000 ft
Dew Point 59 °F
Humidity 92%
Rainfall 0.00 in
Snow Depth Not available.
UV 0 out of 12
Pollen Not available.
Air Quality Not available.
Flu Activity Not available.
METAR EGUL 170058Z AUTO 03005KT 9000 BR OVC010 16/16 A2996 RMK AO2 SLP148 T01620162

More Conditions Fewer Conditions

Pressure 29.97 in
Visibility 5.6 miles
Clouds Overcast 1000 ft
Dew Point 59 °F
Humidity 92%
Rainfall 0.00 in
Snow Depth Not available.
UV 0 out of 12
Pollen Not available.
Air Quality Not available.
Flu Activity Not available.
METAR EGUL 170058Z AUTO 03005KT 9000 BR OVC010 16/16 A2996 RMK AO2 SLP148 T01620162

More Conditions Fewer Conditions

10-Day Weather Forecast

Almanac

Astronomy

Sep. 17, 2014 Rise Set
Actual Time 6:35 AM BST 7:08 PM BST
Civil Twilight 6:00 AM BST 7:42 PM BST
Nautical Twilight 5:19 AM BST 8:23 PM BST
Astronomical Twilight 4:36 AM BST 9:06 PM BST
Moon No Moon Rise 3:39 PM BST
Length of Visible Light 13h 41m
Length of Day
12h 33m
Tomorrow will be 4m 2s shorter.
Last Quarter, 41% of the Moon is Illuminated
Sep 16
Last Quarter
Sep 24
New
Oct 1
First Quarter
Oct 8
Full
Oct 15
Last Quarter

Yesterday's Extremes

Country Highs Country Lows

Community

WunderPhotos

Upload Photos

1,753,943 photos uploaded!

Nearby

Snow Depth

Not available.

Earthquake Activity

City Distance Mag. Time & Date
No recent earthquake activity has been reported nearby.
Minimum magnitude displayed is 2.5.

Coastal Water Temperatures

Place Temperature
No Stations Reporting

Nearby Weather Stations